Coral Topaz — 3ELB7 — position and weather

sailwx.info

Track history (hours):
 
Tides and Currents Weather Stations Pressure Air Temp Water Temp Dewpoint Dewpoint Depression Visibility Wind Speed Wind Dir Waves Ship Positions

Coral Topaz

Last reported at 2017-Nov-23 22:32 UTC. Time now 2017-Dec-13 01:38 UTC.
Position N 48°38' W 126°35'.
Warning: this ship's position is 19 days out of date.

Length 225 m; draft 12.4 m.

Type: Cargo ship. MMSI: 372904000.

Date/timePositionNaut miles runAvg speedWind from/ knotsBaromVisibWave heightAir tempDewpointWater temp
2017-Nov-23 22:32N 48°38' W 126°35'0 7.7
2017-Nov-23 22:29N 48°38' W 126°34'4 8.7
2017-Nov-23 22:00N 48°38' W 126°28'4 9.0
2017-Nov-23 21:30N 48°38' W 126°21'5 9.1
2017-Nov-23 21:00N 48°37' W 126°14'5 9.4
2017-Nov-23 20:30N 48°37' W 126°07'510.0
2017-Nov-23 20:00N 48°37' W 125°59'510.4
2017-Nov-23 19:30N 48°36' W 125°52'510.1
2017-Nov-23 19:00N 48°35' W 125°44'5 9.8
2017-Nov-23 18:30N 48°34' W 125°37'5 9.9
2017-Nov-23 18:00N 48°33' W 125°30'510.0
2017-Nov-23 17:30N 48°32' W 125°22'510.0
2017-Nov-23 17:00N 48°31' W 125°15'5 9.6
2017-Nov-23 16:30N 48°31' W 125°08'5 9.7
2017-Nov-23 16:00N 48°31' W 125°00'5 9.4
2017-Nov-23 15:30N 48°30' W 124°53'4 8.8
2017-Nov-23 15:00N 48°30' W 124°47'4 7.8
2017-Nov-23 14:30N 48°30' W 124°41'4 8.2
2017-Nov-23 14:00N 48°29' W 124°35'4 8.1
2017-Nov-23 13:30N 48°27' W 124°30'4 8.6
2017-Nov-23 13:00N 48°25' W 124°24'5 9.5
2017-Nov-23 12:30N 48°23' W 124°17'5 9.1
2017-Nov-23 12:00N 48°22' W 124°11'5 9.4
2017-Nov-23 11:30N 48°20' W 124°04'510.0
2017-Nov-23 11:00N 48°18' W 123°57'5 9.7
2017-Nov-23 10:30N 48°17' W 123°50'5 9.8
2017-Nov-23 10:00N 48°16' W 123°43'510.8
2017-Nov-23 09:30N 48°16' W 123°35'5 9.5
2017-Nov-23 09:00N 48°18' W 123°28'510.3
2017-Nov-23 08:30N 48°22' W 123°24'3 6.7
2017-Nov-23 08:00N 48°22' W 123°20'611.3
2017-Nov-23 07:31N 48°25' W 123°12'714.9
2017-Nov-23 07:01N 48°33' W 123°13'815.0
2017-Nov-23 06:31N 48°40' W 123°15'612.3
2017-Nov-23 06:00N 48°44' W 123°08'612.6
2017-Nov-23 05:30N 48°48' W 123°00'510.4
2017-Nov-23 04:59N 48°53' W 123°05'612.4
2017-Nov-23 04:29N 48°58' W 123°10'3 1.0
2017-Nov-23 01:24N 49°01' W 123°09'0 0.0
2017-Nov-23 00:12N 49°01' W 123°09'  
2017-Nov-20 00:30N 49°18' W 123°04'0 0.1
2017-Nov-20 00:00N 49°18' W 123°04'0 0.0
2017-Nov-19 23:30N 49°18' W 123°04'0 0.1
2017-Nov-19 22:57N 49°18' W 123°04'0 0.0
2017-Nov-19 22:30N 49°18' W 123°04'0 0.0
2017-Nov-19 22:00N 49°18' W 123°04'0 0.0
2017-Nov-19 21:30N 49°18' W 123°04'0 0.0
2017-Nov-19 21:00N 49°18' W 123°04'0 0.0
2017-Nov-19 20:30N 49°18' W 123°04'0 0.0
2017-Nov-19 20:00N 49°18' W 123°04'0 0.0
2017-Nov-19 19:30N 49°18' W 123°04'0 0.0
2017-Nov-19 19:00N 49°18' W 123°04'0 0.0
2017-Nov-19 18:30N 49°18' W 123°04'0 0.0
2017-Nov-19 18:00N 49°18' W 123°04'0 0.0
2017-Nov-19 17:30N 49°18' W 123°04'0 0.0
2017-Nov-19 17:00N 49°18' W 123°04'0 0.0
2017-Nov-19 16:30N 49°18' W 123°04'0 0.1
2017-Nov-19 16:00N 49°18' W 123°04'0 0.1
2017-Nov-19 15:30N 49°18' W 123°04'0 0.2
2017-Nov-19 15:00N 49°18' W 123°04'0 0.0
2017-Nov-19 14:30N 49°18' W 123°04'0 0.1
2017-Nov-19 13:57N 49°18' W 123°04'0 0.0
2017-Nov-19 13:30N 49°18' W 123°04'0 0.4
2017-Nov-19 13:00N 49°18' W 123°04'0 0.1
2017-Nov-19 12:30N 49°18' W 123°04'0 0.0
2017-Nov-19 12:00N 49°18' W 123°04'0 0.0
2017-Nov-19 11:30N 49°18' W 123°04'0 0.0
2017-Nov-19 11:00N 49°18' W 123°04'0 0.3
2017-Nov-19 10:30N 49°18' W 123°04'0 0.2
2017-Nov-19 09:57N 49°18' W 123°04'0 0.1
2017-Nov-19 09:30N 49°18' W 123°04'0 0.0
2017-Nov-19 09:00N 49°18' W 123°04'0 0.0
2017-Nov-19 08:30N 49°18' W 123°04'0 0.0
2017-Nov-19 08:00N 49°18' W 123°04'0 0.0
2017-Nov-19 07:30N 49°18' W 123°04'0 0.0
2017-Nov-19 07:00N 49°18' W 123°04'0 0.0
2017-Nov-19 06:30N 49°18' W 123°04'0 0.1
2017-Nov-19 06:00N 49°18' W 123°04'0 0.0
2017-Nov-19 05:30N 49°18' W 123°04'0 0.0
2017-Nov-19 05:00N 49°18' W 123°04'0 0.0
2017-Nov-19 04:30N 49°18' W 123°04'0 0.0
2017-Nov-19 04:00N 49°18' W 123°04'0 0.0
2017-Nov-19 03:30N 49°18' W 123°04'0 0.0
2017-Nov-19 03:00N 49°18' W 123°04'0 0.0
2017-Nov-19 02:30N 49°18' W 123°04'0 0.1
2017-Nov-19 01:54N 49°18' W 123°04'0 0.0
2017-Nov-19 01:30N 49°18' W 123°04'0 0.0
2017-Nov-19 01:00N 49°18' W 123°04'0 0.0
2017-Nov-19 00:30N 49°18' W 123°04'0 0.1
2017-Nov-19 00:00N 49°18' W 123°04'0 0.1
2017-Nov-18 23:30N 49°18' W 123°04'0 0.1
2017-Nov-18 23:00N 49°18' W 123°04'0 0.2
2017-Nov-18 22:30N 49°18' W 123°04'0 0.1
2017-Nov-18 22:00N 49°18' W 123°04'0 0.0
2017-Nov-18 21:30N 49°18' W 123°04'0 0.0
2017-Nov-18 20:57N 49°18' W 123°04'0 0.1
2017-Nov-18 20:30N 49°18' W 123°04'0 0.0
2017-Nov-18 20:00N 49°18' W 123°04'0 0.0
2017-Nov-18 19:30N 49°18' W 123°04'0 0.0
2017-Nov-18 19:00N 49°18' W 123°04'0 0.0
2017-Nov-18 18:30N 49°18' W 123°04'0 0.0
2017-Nov-18 18:00N 49°18' W 123°04'0 0.0
2017-Nov-18 17:30N 49°18' W 123°04'0 0.0
2017-Nov-18 17:00N 49°18' W 123°04'0 0.1
2017-Nov-18 16:30N 49°18' W 123°04'0 0.1
2017-Nov-18 16:00N 49°18' W 123°04'0 0.0
2017-Nov-18 15:30N 49°18' W 123°04'0 0.0
2017-Nov-18 15:00N 49°18' W 123°04'0 0.0
2017-Nov-18 14:30N 49°18' W 123°04'0 0.1
2017-Nov-18 14:00N 49°18' W 123°04'0 0.1
2017-Nov-18 13:30N 49°18' W 123°04'0 0.2
2017-Nov-18 13:00N 49°18' W 123°04'0 0.1
2017-Nov-18 12:30N 49°18' W 123°04'0 0.0
2017-Nov-18 12:00N 49°18' W 123°04'0 0.2
2017-Nov-18 11:30N 49°18' W 123°04'0 0.1
2017-Nov-18 11:00N 49°18' W 123°04'0 0.0
2017-Nov-18 10:30N 49°18' W 123°04'0 0.2
2017-Nov-18 10:00N 49°18' W 123°04'0 0.2
2017-Nov-18 09:24N 49°18' W 123°04'0 0.1
2017-Nov-18 09:00N 49°18' W 123°04'0 0.0
2017-Nov-18 08:30N 49°18' W 123°04'0 0.1
2017-Nov-18 08:00N 49°18' W 123°04'0 0.0
2017-Nov-18 07:30N 49°18' W 123°04'0 0.0
2017-Nov-18 07:00N 49°18' W 123°04'0 0.1
2017-Nov-18 06:30N 49°18' W 123°04'0 0.1
2017-Nov-18 06:00N 49°18' W 123°04'0 0.0
2017-Nov-18 05:30N 49°18' W 123°04'0 0.0
2017-Nov-18 05:00N 49°18' W 123°04'0 0.0
2017-Nov-18 04:30N 49°18' W 123°04'0 0.1
2017-Nov-18 04:00N 49°18' W 123°04'0 0.0
2017-Nov-18 03:30N 49°18' W 123°04'0 0.0
2017-Nov-18 03:00N 49°18' W 123°04'0 0.0
2017-Nov-18 02:30N 49°18' W 123°04'0 0.1
2017-Nov-18 02:00N 49°18' W 123°04'0 0.1
2017-Nov-18 01:30N 49°18' W 123°04'0 0.1
2017-Nov-18 01:00N 49°18' W 123°04'0 0.2
2017-Nov-18 00:30N 49°18' W 123°04'0 0.1
2017-Nov-17 23:57N 49°18' W 123°04'0 0.0
2017-Nov-17 23:27N 49°18' W 123°04'0 0.1
2017-Nov-17 23:00N 49°18' W 123°04'0 0.1
2017-Nov-17 22:30N 49°18' W 123°04'0 0.1
2017-Nov-17 22:00N 49°18' W 123°04'0 0.2
2017-Nov-17 21:30N 49°18' W 123°04'0 0.1
2017-Nov-17 21:00N 49°18' W 123°04'0 0.1
2017-Nov-17 20:30N 49°18' W 123°04'0 0.1
2017-Nov-17 20:00N 49°18' W 123°04'0 0.0
2017-Nov-17 19:30N 49°18' W 123°04'0 0.0
2017-Nov-17 19:00N 49°18' W 123°04'0 0.0
2017-Nov-17 18:30N 49°18' W 123°04'0 0.0
2017-Nov-17 18:00N 49°18' W 123°04'0 0.0
2017-Nov-17 17:30N 49°18' W 123°04'0 0.0
2017-Nov-17 17:00N 49°18' W 123°04'0 0.0
2017-Nov-17 16:30N 49°18' W 123°04'0 0.0
2017-Nov-17 16:00N 49°18' W 123°04'0 0.0
2017-Nov-17 15:30N 49°18' W 123°04'0 0.0
2017-Nov-17 15:00N 49°18' W 123°04'0 0.1
2017-Nov-17 14:30N 49°18' W 123°04'0 0.1
2017-Nov-17 14:00N 49°18' W 123°04'0 0.3
2017-Nov-17 13:30N 49°18' W 123°04'0 0.2
2017-Nov-17 13:00N 49°18' W 123°04'0 0.1
2017-Nov-17 12:30N 49°18' W 123°04'0 0.0
2017-Nov-17 12:00N 49°18' W 123°04'0 0.0
2017-Nov-17 11:30N 49°18' W 123°04'0 0.0
2017-Nov-17 11:00N 49°18' W 123°04'0 0.0
2017-Nov-17 10:30N 49°18' W 123°04'0 0.0
2017-Nov-17 10:00N 49°18' W 123°04'0 0.1
2017-Nov-17 09:30N 49°18' W 123°04'0 0.1
2017-Nov-17 09:00N 49°18' W 123°04'0 0.2
2017-Nov-17 08:30N 49°18' W 123°04'0 0.1
2017-Nov-17 08:00N 49°18' W 123°04'0 0.1
2017-Nov-17 07:30N 49°18' W 123°04'0 0.0
2017-Nov-17 07:00N 49°18' W 123°04'0 0.0
2017-Nov-17 06:30N 49°18' W 123°04'0 0.1
2017-Nov-17 06:00N 49°18' W 123°04'0 0.0
2017-Nov-17 05:30N 49°18' W 123°04'0 0.0
2017-Nov-17 05:00N 49°18' W 123°04'0 0.0
2017-Nov-17 04:30N 49°18' W 123°04'0 0.0
2017-Nov-17 04:00N 49°18' W 123°04'0 0.1
2017-Nov-17 03:30N 49°18' W 123°04'0 0.1
2017-Nov-17 03:00N 49°18' W 123°04'0 0.0
2017-Nov-17 02:30N 49°18' W 123°04'0 0.0
2017-Nov-17 02:00N 49°18' W 123°04'0 0.1
2017-Nov-17 01:30N 49°18' W 123°04'0 0.0
2017-Nov-17 01:00N 49°18' W 123°04'0 0.1
2017-Nov-17 00:30N 49°18' W 123°04'0 0.1
2017-Nov-17 00:00N 49°18' W 123°04'0 0.2
2017-Nov-16 23:30N 49°18' W 123°04'0 0.2
2017-Nov-16 23:00N 49°18' W 123°04'0 0.1
2017-Nov-16 22:30N 49°18' W 123°04'0 0.0
2017-Nov-16 22:00N 49°18' W 123°04'0 0.2
2017-Nov-16 21:30N 49°18' W 123°04'0 0.2
2017-Nov-16 21:00N 49°18' W 123°04'0 0.2
2017-Nov-16 20:30N 49°18' W 123°04'0 0.1
2017-Nov-16 20:00N 49°18' W 123°04'0 0.1
2017-Nov-16 19:30N 49°18' W 123°04'0 0.0
2017-Nov-16 19:00N 49°18' W 123°04'0 0.0
2017-Nov-16 18:30N 49°18' W 123°04'0 0.0
2017-Nov-16 18:00N 49°18' W 123°04'0 0.0
2017-Nov-16 17:30N 49°18' W 123°04'0 0.0
2017-Nov-16 17:00N 49°18' W 123°04'0 0.0
2017-Nov-16 16:30N 49°18' W 123°04'0 0.0
2017-Nov-16 16:00N 49°18' W 123°04'0 0.0
2017-Nov-16 15:30N 49°18' W 123°04'0 0.0
2017-Nov-16 15:00N 49°18' W 123°04'0 0.0
2017-Nov-16 14:30N 49°18' W 123°04'0 0.0
2017-Nov-16 14:00N 49°18' W 123°04'0 0.3
2017-Nov-16 13:30N 49°18' W 123°04'0 0.4
2017-Nov-16 13:00N 49°18' W 123°04'0 0.2
2017-Nov-16 12:30N 49°18' W 123°04'0 0.1
2017-Nov-16 12:00N 49°18' W 123°04'0 0.0
2017-Nov-16 11:30N 49°18' W 123°04'0 0.0
2017-Nov-16 11:00N 49°18' W 123°04'0 0.1
2017-Nov-16 10:30N 49°18' W 123°04'0 0.1
2017-Nov-16 10:00N 49°18' W 123°04'0 0.2
2017-Nov-16 09:30N 49°18' W 123°04'0 0.3
2017-Nov-16 08:57N 49°18' W 123°04'0 0.1
2017-Nov-16 08:27N 49°18' W 123°04'0 0.1
2017-Nov-16 07:57N 49°18' W 123°04'0 0.0
2017-Nov-16 07:30N 49°18' W 123°04'0 0.1
2017-Nov-16 07:00N 49°18' W 123°04'0 0.1
2017-Nov-16 06:30N 49°18' W 123°04'0 0.1
2017-Nov-16 06:00N 49°18' W 123°04'0 0.0
2017-Nov-16 05:30N 49°18' W 123°04'0 0.1
2017-Nov-16 05:00N 49°18' W 123°04'0 0.0
2017-Nov-16 04:27N 49°18' W 123°04'0 0.0
2017-Nov-16 04:00N 49°18' W 123°04'0 0.1
2017-Nov-16 03:27N 49°18' W 123°04'0 0.2
2017-Nov-16 03:00N 49°18' W 123°04'0 0.0
2017-Nov-16 02:30N 49°18' W 123°04'0 0.1
2017-Nov-16 02:00N 49°18' W 123°04'0 0.0
2017-Nov-16 01:30N 49°18' W 123°04'0 0.0
2017-Nov-16 01:00N 49°18' W 123°04'0 0.1
2017-Nov-16 00:30N 49°18' W 123°04'0 0.1
2017-Nov-16 00:00N 49°18' W 123°04'0 0.0
2017-Nov-15 23:30N 49°18' W 123°04'0 0.1
2017-Nov-15 23:00N 49°18' W 123°04'0 0.2
2017-Nov-15 22:30N 49°18' W 123°04'0 0.1
2017-Nov-15 21:54N 49°18' W 123°04'0 0.1
2017-Nov-15 21:30N 49°18' W 123°04'0 0.0
2017-Nov-15 21:00N 49°18' W 123°04'0 0.2
2017-Nov-15 20:30N 49°18' W 123°04'0 0.3
2017-Nov-15 20:00N 49°18' W 123°04'0 0.1
2017-Nov-15 19:27N 49°18' W 123°04'0 0.1
2017-Nov-15 19:00N 49°18' W 123°04'0 0.2
2017-Nov-15 18:30N 49°18' W 123°04'0 0.1
2017-Nov-15 18:00N 49°18' W 123°04'0 0.1
2017-Nov-15 17:30N 49°18' W 123°04'0 0.1
2017-Nov-15 17:00N 49°18' W 123°04'0 0.1
2017-Nov-15 16:30N 49°18' W 123°04'0 0.0
2017-Nov-15 16:00N 49°18' W 123°04'0 0.1
2017-Nov-15 15:30N 49°18' W 123°04'0 0.1
2017-Nov-15 15:00N 49°18' W 123°04'0 0.1
2017-Nov-15 14:30N 49°18' W 123°04'2 3.8
2017-Nov-15 14:00N 49°18' W 123°07'4 7.7
2017-Nov-15 13:30N 49°18' W 123°13'0 0.9
2017-Nov-15 13:00N 49°18' W 123°14'0 0.0
2017-Nov-15 12:27N 49°18' W 123°14'0 0.0
2017-Nov-15 11:57N 49°18' W 123°14'0 0.1
2017-Nov-15 11:12N 49°18' W 123°14'0 0.0
2017-Nov-15 10:48N 49°18' W 123°14'0 0.0
2017-Nov-15 10:24N 49°18' W 123°14'0 0.0
2017-Nov-15 09:57N 49°18' W 123°14'0 0.0
2017-Nov-15 09:12N 49°18' W 123°14'0 0.0
2017-Nov-15 08:45N 49°18' W 123°14'0 0.3
2017-Nov-15 08:30N 49°18' W 123°14'0 0.0
2017-Nov-15 07:45N 49°18' W 123°14'0 0.2
2017-Nov-15 07:30N 49°18' W 123°14'0 0.1
2017-Nov-15 07:00N 49°18' W 123°14'0 0.0
2017-Nov-15 06:30N 49°18' W 123°14'0 0.1
2017-Nov-15 06:00N 49°18' W 123°14'0 0.0
2017-Nov-15 05:30N 49°18' W 123°14'0 0.1
2017-Nov-15 04:57N 49°18' W 123°14'0 0.0
2017-Nov-15 04:30N 49°18' W 123°14'0 0.0
2017-Nov-15 03:54N 49°18' W 123°14'0 0.1
2017-Nov-15 03:21N 49°18' W 123°14'0 0.0
2017-Nov-15 02:57N 49°18' W 123°14'0 0.1
2017-Nov-15 02:30N 49°18' W 123°14'0 0.0
2017-Nov-15 02:00N 49°18' W 123°14'0 0.1
2017-Nov-15 01:30N 49°18' W 123°14'0 0.1
2017-Nov-15 01:00N 49°18' W 123°14'0 0.1
2017-Nov-15 00:30N 49°18' W 123°14'0 0.1
2017-Nov-15 00:00N 49°18' W 123°14'0 0.0
2017-Nov-14 23:30N 49°18' W 123°14'0 0.1
2017-Nov-14 23:00N 49°18' W 123°14'0 0.1
2017-Nov-14 22:30N 49°18' W 123°14'0 0.0
2017-Nov-14 22:00N 49°18' W 123°14'0 0.1
2017-Nov-14 21:30N 49°18' W 123°14'0 0.1
2017-Nov-14 21:00N 49°18' W 123°14'0 0.0
2017-Nov-14 20:30N 49°18' W 123°14'0 0.1
2017-Nov-14 20:00N 49°18' W 123°14'0 0.0
2017-Nov-14 19:30N 49°18' W 123°14'0 0.1
2017-Nov-14 19:00N 49°18' W 123°14'0 0.0
2017-Nov-14 18:30N 49°18' W 123°14'0 0.0
2017-Nov-14 17:48N 49°18' W 123°14'0 0.1
2017-Nov-14 17:30N 49°18' W 123°14'0 0.1
2017-Nov-14 17:00N 49°18' W 123°14'0 0.0
2017-Nov-14 16:30N 49°18' W 123°14'0 0.1
2017-Nov-14 16:00N 49°18' W 123°14'0 0.1
2017-Nov-14 15:30N 49°18' W 123°14'0 0.0
2017-Nov-14 15:00N 49°18' W 123°14'0 0.0
2017-Nov-14 14:27N 49°18' W 123°14'0 0.0
2017-Nov-14 14:00N 49°18' W 123°14'0 0.0
2017-Nov-14 13:30N 49°18' W 123°14'0 0.0
2017-Nov-14 13:00N 49°18' W 123°14'0 0.0
2017-Nov-14 12:30N 49°18' W 123°14'0 0.1
2017-Nov-14 12:00N 49°18' W 123°14'0 0.2
2017-Nov-14 11:30N 49°18' W 123°14'0 0.2
2017-Nov-14 10:54N 49°18' W 123°13'0 0.1
2017-Nov-14 10:30N 49°18' W 123°13'0 0.1
2017-Nov-14 09:57N 49°18' W 123°13'0 0.0
2017-Nov-14 09:30N 49°18' W 123°13'0 0.0
2017-Nov-14 08:45N 49°18' W 123°13'0 0.0
2017-Nov-14 08:24N 49°18' W 123°13'0 0.0
2017-Nov-14 08:00N 49°18' W 123°13'0 0.0
2017-Nov-14 07:30N 49°18' W 123°13'0 0.0
2017-Nov-14 07:00N 49°18' W 123°13'0 0.0
2017-Nov-14 06:30N 49°18' W 123°13'0 0.0
2017-Nov-14 05:57N 49°18' W 123°13'0 0.0
2017-Nov-14 05:30N 49°18' W 123°13'0 0.1
2017-Nov-14 05:00N 49°18' W 123°13'0 0.2
2017-Nov-14 04:09N 49°18' W 123°14'0 0.3
2017-Nov-14 04:00N 49°18' W 123°14'0 0.1
2017-Nov-14 03:24N 49°18' W 123°14'0 0.0
2017-Nov-14 02:54N 49°18' W 123°14'0 0.0
2017-Nov-14 02:27N 49°18' W 123°14'0 0.1
2017-Nov-14 01:51N 49°18' W 123°14'0 0.0
2017-Nov-14 01:12N 49°18' W 123°14'0 0.1
2017-Nov-14 00:57N 49°18' W 123°14'0 0.1
2017-Nov-14 00:24N 49°18' W 123°14'0 0.0
2017-Nov-14 00:00N 49°18' W 123°14'0 0.1
2017-Nov-13 23:30N 49°18' W 123°14'0 0.1
2017-Nov-13 23:00N 49°18' W 123°14'  
Track history (hours):
 
Tides and Currents Weather Stations Pressure Air Temp Water Temp Dewpoint Dewpoint Depression Visibility Wind Speed Wind Dir Waves Ship Positions

Coral Topaz

Last reported at 2017-Nov-23 22:32 UTC. Time now 2017-Dec-13 01:38 UTC.
Position N 48°38' W 126°35'.
Warning: this ship's position is 19 days out of date.

Length 225 m; draft 12.4 m.

Type: Cargo ship. MMSI: 372904000.

Date/timePositionNaut miles runAvg speedWind from/ knotsBaromVisibWave heightAir tempDewpointWater temp
2017-Nov-23 22:32N 48°38' W 126°35'0 7.7
2017-Nov-23 22:29N 48°38' W 126°34'4 8.7
2017-Nov-23 22:00N 48°38' W 126°28'4 9.0
2017-Nov-23 21:30N 48°38' W 126°21'5 9.1
2017-Nov-23 21:00N 48°37' W 126°14'5 9.4
2017-Nov-23 20:30N 48°37' W 126°07'510.0
2017-Nov-23 20:00N 48°37' W 125°59'510.4
2017-Nov-23 19:30N 48°36' W 125°52'510.1
2017-Nov-23 19:00N 48°35' W 125°44'5 9.8
2017-Nov-23 18:30N 48°34' W 125°37'5 9.9
2017-Nov-23 18:00N 48°33' W 125°30'510.0
2017-Nov-23 17:30N 48°32' W 125°22'510.0
2017-Nov-23 17:00N 48°31' W 125°15'5 9.6
2017-Nov-23 16:30N 48°31' W 125°08'5 9.7
2017-Nov-23 16:00N 48°31' W 125°00'5 9.4
2017-Nov-23 15:30N 48°30' W 124°53'4 8.8
2017-Nov-23 15:00N 48°30' W 124°47'4 7.8
2017-Nov-23 14:30N 48°30' W 124°41'4 8.2
2017-Nov-23 14:00N 48°29' W 124°35'4 8.1
2017-Nov-23 13:30N 48°27' W 124°30'4 8.6
2017-Nov-23 13:00N 48°25' W 124°24'5 9.5
2017-Nov-23 12:30N 48°23' W 124°17'5 9.1
2017-Nov-23 12:00N 48°22' W 124°11'5 9.4
2017-Nov-23 11:30N 48°20' W 124°04'510.0
2017-Nov-23 11:00N 48°18' W 123°57'5 9.7
2017-Nov-23 10:30N 48°17' W 123°50'5 9.8
2017-Nov-23 10:00N 48°16' W 123°43'510.8
2017-Nov-23 09:30N 48°16' W 123°35'5 9.5
2017-Nov-23 09:00N 48°18' W 123°28'510.3
2017-Nov-23 08:30N 48°22' W 123°24'3 6.7
2017-Nov-23 08:00N 48°22' W 123°20'611.3
2017-Nov-23 07:31N 48°25' W 123°12'714.9
2017-Nov-23 07:01N 48°33' W 123°13'815.0
2017-Nov-23 06:31N 48°40' W 123°15'612.3
2017-Nov-23 06:00N 48°44' W 123°08'612.6
2017-Nov-23 05:30N 48°48' W 123°00'510.4
2017-Nov-23 04:59N 48°53' W 123°05'612.4
2017-Nov-23 04:29N 48°58' W 123°10'3 1.0
2017-Nov-23 01:24N 49°01' W 123°09'0 0.0
2017-Nov-23 00:12N 49°01' W 123°09'  
2017-Nov-20 00:30N 49°18' W 123°04'0 0.1
2017-Nov-20 00:00N 49°18' W 123°04'0 0.0
2017-Nov-19 23:30N 49°18' W 123°04'0 0.1
2017-Nov-19 22:57N 49°18' W 123°04'0 0.0
2017-Nov-19 22:30N 49°18' W 123°04'0 0.0
2017-Nov-19 22:00N 49°18' W 123°04'0 0.0
2017-Nov-19 21:30N 49°18' W 123°04'0 0.0
2017-Nov-19 21:00N 49°18' W 123°04'0 0.0
2017-Nov-19 20:30N 49°18' W 123°04'0 0.0
2017-Nov-19 20:00N 49°18' W 123°04'0 0.0
2017-Nov-19 19:30N 49°18' W 123°04'0 0.0
2017-Nov-19 19:00N 49°18' W 123°04'0 0.0
2017-Nov-19 18:30N 49°18' W 123°04'0 0.0
2017-Nov-19 18:00N 49°18' W 123°04'0 0.0
2017-Nov-19 17:30N 49°18' W 123°04'0 0.0
2017-Nov-19 17:00N 49°18' W 123°04'0 0.0
2017-Nov-19 16:30N 49°18' W 123°04'0 0.1
2017-Nov-19 16:00N 49°18' W 123°04'0 0.1
2017-Nov-19 15:30N 49°18' W 123°04'0 0.2
2017-Nov-19 15:00N 49°18' W 123°04'0 0.0
2017-Nov-19 14:30N 49°18' W 123°04'0 0.1
2017-Nov-19 13:57N 49°18' W 123°04'0 0.0
2017-Nov-19 13:30N 49°18' W 123°04'0 0.4
2017-Nov-19 13:00N 49°18' W 123°04'0 0.1
2017-Nov-19 12:30N 49°18' W 123°04'0 0.0
2017-Nov-19 12:00N 49°18' W 123°04'0 0.0
2017-Nov-19 11:30N 49°18' W 123°04'0 0.0
2017-Nov-19 11:00N 49°18' W 123°04'0 0.3
2017-Nov-19 10:30N 49°18' W 123°04'0 0.2
2017-Nov-19 09:57N 49°18' W 123°04'0 0.1
2017-Nov-19 09:30N 49°18' W 123°04'0 0.0
2017-Nov-19 09:00N 49°18' W 123°04'0 0.0
2017-Nov-19 08:30N 49°18' W 123°04'0 0.0
2017-Nov-19 08:00N 49°18' W 123°04'0 0.0
2017-Nov-19 07:30N 49°18' W 123°04'0 0.0
2017-Nov-19 07:00N 49°18' W 123°04'0 0.0
2017-Nov-19 06:30N 49°18' W 123°04'0 0.1
2017-Nov-19 06:00N 49°18' W 123°04'0 0.0
2017-Nov-19 05:30N 49°18' W 123°04'0 0.0
2017-Nov-19 05:00N 49°18' W 123°04'0 0.0
2017-Nov-19 04:30N 49°18' W 123°04'0 0.0
2017-Nov-19 04:00N 49°18' W 123°04'0 0.0
2017-Nov-19 03:30N 49°18' W 123°04'0 0.0
2017-Nov-19 03:00N 49°18' W 123°04'0 0.0
2017-Nov-19 02:30N 49°18' W 123°04'0 0.1
2017-Nov-19 01:54N 49°18' W 123°04'0 0.0
2017-Nov-19 01:30N 49°18' W 123°04'0 0.0
2017-Nov-19 01:00N 49°18' W 123°04'0 0.0
2017-Nov-19 00:30N 49°18' W 123°04'0 0.1
2017-Nov-19 00:00N 49°18' W 123°04'0 0.1
2017-Nov-18 23:30N 49°18' W 123°04'0 0.1
2017-Nov-18 23:00N 49°18' W 123°04'0 0.2
2017-Nov-18 22:30N 49°18' W 123°04'0 0.1
2017-Nov-18 22:00N 49°18' W 123°04'0 0.0
2017-Nov-18 21:30N 49°18' W 123°04'0 0.0
2017-Nov-18 20:57N 49°18' W 123°04'0 0.1
2017-Nov-18 20:30N 49°18' W 123°04'0 0.0
2017-Nov-18 20:00N 49°18' W 123°04'0 0.0
2017-Nov-18 19:30N 49°18' W 123°04'0 0.0
2017-Nov-18 19:00N 49°18' W 123°04'0 0.0
2017-Nov-18 18:30N 49°18' W 123°04'0 0.0
2017-Nov-18 18:00N 49°18' W 123°04'0 0.0
2017-Nov-18 17:30N 49°18' W 123°04'0 0.0
2017-Nov-18 17:00N 49°18' W 123°04'0 0.1
2017-Nov-18 16:30N 49°18' W 123°04'0 0.1
2017-Nov-18 16:00N 49°18' W 123°04'0 0.0
2017-Nov-18 15:30N 49°18' W 123°04'0 0.0
2017-Nov-18 15:00N 49°18' W 123°04'0 0.0
2017-Nov-18 14:30N 49°18' W 123°04'0 0.1
2017-Nov-18 14:00N 49°18' W 123°04'0 0.1
2017-Nov-18 13:30N 49°18' W 123°04'0 0.2
2017-Nov-18 13:00N 49°18' W 123°04'0 0.1
2017-Nov-18 12:30N 49°18' W 123°04'0 0.0
2017-Nov-18 12:00N 49°18' W 123°04'0 0.2
2017-Nov-18 11:30N 49°18' W 123°04'0 0.1
2017-Nov-18 11:00N 49°18' W 123°04'0 0.0
2017-Nov-18 10:30N 49°18' W 123°04'0 0.2
2017-Nov-18 10:00N 49°18' W 123°04'0 0.2
2017-Nov-18 09:24N 49°18' W 123°04'0 0.1
2017-Nov-18 09:00N 49°18' W 123°04'0 0.0
2017-Nov-18 08:30N 49°18' W 123°04'0 0.1
2017-Nov-18 08:00N 49°18' W 123°04'0 0.0
2017-Nov-18 07:30N 49°18' W 123°04'0 0.0
2017-Nov-18 07:00N 49°18' W 123°04'0 0.1
2017-Nov-18 06:30N 49°18' W 123°04'0 0.1
2017-Nov-18 06:00N 49°18' W 123°04'0 0.0
2017-Nov-18 05:30N 49°18' W 123°04'0 0.0
2017-Nov-18 05:00N 49°18' W 123°04'0 0.0
2017-Nov-18 04:30N 49°18' W 123°04'0 0.1
2017-Nov-18 04:00N 49°18' W 123°04'0 0.0
2017-Nov-18 03:30N 49°18' W 123°04'0 0.0
2017-Nov-18 03:00N 49°18' W 123°04'0 0.0
2017-Nov-18 02:30N 49°18' W 123°04'0 0.1
2017-Nov-18 02:00N 49°18' W 123°04'0 0.1
2017-Nov-18 01:30N 49°18' W 123°04'0 0.1
2017-Nov-18 01:00N 49°18' W 123°04'0 0.2
2017-Nov-18 00:30N 49°18' W 123°04'0 0.1
2017-Nov-17 23:57N 49°18' W 123°04'0 0.0
2017-Nov-17 23:27N 49°18' W 123°04'0 0.1
2017-Nov-17 23:00N 49°18' W 123°04'0 0.1
2017-Nov-17 22:30N 49°18' W 123°04'0 0.1
2017-Nov-17 22:00N 49°18' W 123°04'0 0.2
2017-Nov-17 21:30N 49°18' W 123°04'0 0.1
2017-Nov-17 21:00N 49°18' W 123°04'0 0.1
2017-Nov-17 20:30N 49°18' W 123°04'0 0.1
2017-Nov-17 20:00N 49°18' W 123°04'0 0.0
2017-Nov-17 19:30N 49°18' W 123°04'0 0.0
2017-Nov-17 19:00N 49°18' W 123°04'0 0.0
2017-Nov-17 18:30N 49°18' W 123°04'0 0.0
2017-Nov-17 18:00N 49°18' W 123°04'0 0.0
2017-Nov-17 17:30N 49°18' W 123°04'0 0.0
2017-Nov-17 17:00N 49°18' W 123°04'0 0.0
2017-Nov-17 16:30N 49°18' W 123°04'0 0.0
2017-Nov-17 16:00N 49°18' W 123°04'0 0.0
2017-Nov-17 15:30N 49°18' W 123°04'0 0.0
2017-Nov-17 15:00N 49°18' W 123°04'0 0.1
2017-Nov-17 14:30N 49°18' W 123°04'0 0.1
2017-Nov-17 14:00N 49°18' W 123°04'0 0.3
2017-Nov-17 13:30N 49°18' W 123°04'0 0.2
2017-Nov-17 13:00N 49°18' W 123°04'0 0.1
2017-Nov-17 12:30N 49°18' W 123°04'0 0.0
2017-Nov-17 12:00N 49°18' W 123°04'0 0.0
2017-Nov-17 11:30N 49°18' W 123°04'0 0.0
2017-Nov-17 11:00N 49°18' W 123°04'0 0.0
2017-Nov-17 10:30N 49°18' W 123°04'0 0.0
2017-Nov-17 10:00N 49°18' W 123°04'0 0.1
2017-Nov-17 09:30N 49°18' W 123°04'0 0.1
2017-Nov-17 09:00N 49°18' W 123°04'0 0.2
2017-Nov-17 08:30N 49°18' W 123°04'0 0.1
2017-Nov-17 08:00N 49°18' W 123°04'0 0.1
2017-Nov-17 07:30N 49°18' W 123°04'0 0.0
2017-Nov-17 07:00N 49°18' W 123°04'0 0.0
2017-Nov-17 06:30N 49°18' W 123°04'0 0.1
2017-Nov-17 06:00N 49°18' W 123°04'0 0.0
2017-Nov-17 05:30N 49°18' W 123°04'0 0.0
2017-Nov-17 05:00N 49°18' W 123°04'0 0.0
2017-Nov-17 04:30N 49°18' W 123°04'0 0.0
2017-Nov-17 04:00N 49°18' W 123°04'0 0.1
2017-Nov-17 03:30N 49°18' W 123°04'0 0.1
2017-Nov-17 03:00N 49°18' W 123°04'0 0.0
2017-Nov-17 02:30N 49°18' W 123°04'0 0.0
2017-Nov-17 02:00N 49°18' W 123°04'0 0.1
2017-Nov-17 01:30N 49°18' W 123°04'0 0.0
2017-Nov-17 01:00N 49°18' W 123°04'0 0.1
2017-Nov-17 00:30N 49°18' W 123°04'0 0.1
2017-Nov-17 00:00N 49°18' W 123°04'0 0.2
2017-Nov-16 23:30N 49°18' W 123°04'0 0.2
2017-Nov-16 23:00N 49°18' W 123°04'0 0.1
2017-Nov-16 22:30N 49°18' W 123°04'0 0.0
2017-Nov-16 22:00N 49°18' W 123°04'0 0.2
2017-Nov-16 21:30N 49°18' W 123°04'0 0.2
2017-Nov-16 21:00N 49°18' W 123°04'0 0.2
2017-Nov-16 20:30N 49°18' W 123°04'0 0.1
2017-Nov-16 20:00N 49°18' W 123°04'0 0.1
2017-Nov-16 19:30N 49°18' W 123°04'0 0.0
2017-Nov-16 19:00N 49°18' W 123°04'0 0.0
2017-Nov-16 18:30N 49°18' W 123°04'0 0.0
2017-Nov-16 18:00N 49°18' W 123°04'0 0.0
2017-Nov-16 17:30N 49°18' W 123°04'0 0.0
2017-Nov-16 17:00N 49°18' W 123°04'0 0.0
2017-Nov-16 16:30N 49°18' W 123°04'0 0.0
2017-Nov-16 16:00N 49°18' W 123°04'0 0.0
2017-Nov-16 15:30N 49°18' W 123°04'0 0.0
2017-Nov-16 15:00N 49°18' W 123°04'0 0.0
2017-Nov-16 14:30N 49°18' W 123°04'0 0.0
2017-Nov-16 14:00N 49°18' W 123°04'0 0.3
2017-Nov-16 13:30N 49°18' W 123°04'0 0.4
2017-Nov-16 13:00N 49°18' W 123°04'0 0.2
2017-Nov-16 12:30N 49°18' W 123°04'0 0.1
2017-Nov-16 12:00N 49°18' W 123°04'0 0.0
2017-Nov-16 11:30N 49°18' W 123°04'0 0.0
2017-Nov-16 11:00N 49°18' W 123°04'0 0.1
2017-Nov-16 10:30N 49°18' W 123°04'0 0.1
2017-Nov-16 10:00N 49°18' W 123°04'0 0.2
2017-Nov-16 09:30N 49°18' W 123°04'0 0.3
2017-Nov-16 08:57N 49°18' W 123°04'0 0.1
2017-Nov-16 08:27N 49°18' W 123°04'0 0.1
2017-Nov-16 07:57N 49°18' W 123°04'0 0.0
2017-Nov-16 07:30N 49°18' W 123°04'0 0.1
2017-Nov-16 07:00N 49°18' W 123°04'0 0.1
2017-Nov-16 06:30N 49°18' W 123°04'0 0.1
2017-Nov-16 06:00N 49°18' W 123°04'0 0.0
2017-Nov-16 05:30N 49°18' W 123°04'0 0.1
2017-Nov-16 05:00N 49°18' W 123°04'0 0.0
2017-Nov-16 04:27N 49°18' W 123°04'0 0.0
2017-Nov-16 04:00N 49°18' W 123°04'0 0.1
2017-Nov-16 03:27N 49°18' W 123°04'0 0.2
2017-Nov-16 03:00N 49°18' W 123°04'0 0.0
2017-Nov-16 02:30N 49°18' W 123°04'0 0.1
2017-Nov-16 02:00N 49°18' W 123°04'0 0.0
2017-Nov-16 01:30N 49°18' W 123°04'0 0.0
2017-Nov-16 01:00N 49°18' W 123°04'0 0.1
2017-Nov-16 00:30N 49°18' W 123°04'0 0.1
2017-Nov-16 00:00N 49°18' W 123°04'0 0.0
2017-Nov-15 23:30N 49°18' W 123°04'0 0.1
2017-Nov-15 23:00N 49°18' W 123°04'0 0.2
2017-Nov-15 22:30N 49°18' W 123°04'0 0.1
2017-Nov-15 21:54N 49°18' W 123°04'0 0.1
2017-Nov-15 21:30N 49°18' W 123°04'0 0.0
2017-Nov-15 21:00N 49°18' W 123°04'0 0.2
2017-Nov-15 20:30N 49°18' W 123°04'0 0.3
2017-Nov-15 20:00N 49°18' W 123°04'0 0.1
2017-Nov-15 19:27N 49°18' W 123°04'0 0.1
2017-Nov-15 19:00N 49°18' W 123°04'0 0.2
2017-Nov-15 18:30N 49°18' W 123°04'0 0.1
2017-Nov-15 18:00N 49°18' W 123°04'0 0.1
2017-Nov-15 17:30N 49°18' W 123°04'0 0.1
2017-Nov-15 17:00N 49°18' W 123°04'0 0.1
2017-Nov-15 16:30N 49°18' W 123°04'0 0.0
2017-Nov-15 16:00N 49°18' W 123°04'0 0.1
2017-Nov-15 15:30N 49°18' W 123°04'0 0.1
2017-Nov-15 15:00N 49°18' W 123°04'0 0.1
2017-Nov-15 14:30N 49°18' W 123°04'2 3.8
2017-Nov-15 14:00N 49°18' W 123°07'4 7.7
2017-Nov-15 13:30N 49°18' W 123°13'0 0.9
2017-Nov-15 13:00N 49°18' W 123°14'0 0.0
2017-Nov-15 12:27N 49°18' W 123°14'0 0.0
2017-Nov-15 11:57N 49°18' W 123°14'0 0.1
2017-Nov-15 11:12N 49°18' W 123°14'0 0.0
2017-Nov-15 10:48N 49°18' W 123°14'0 0.0
2017-Nov-15 10:24N 49°18' W 123°14'0 0.0
2017-Nov-15 09:57N 49°18' W 123°14'0 0.0
2017-Nov-15 09:12N 49°18' W 123°14'0 0.0
2017-Nov-15 08:45N 49°18' W 123°14'0 0.3
2017-Nov-15 08:30N 49°18' W 123°14'0 0.0
2017-Nov-15 07:45N 49°18' W 123°14'0 0.2
2017-Nov-15 07:30N 49°18' W 123°14'0 0.1
2017-Nov-15 07:00N 49°18' W 123°14'0 0.0
2017-Nov-15 06:30N 49°18' W 123°14'0 0.1
2017-Nov-15 06:00N 49°18' W 123°14'0 0.0
2017-Nov-15 05:30N 49°18' W 123°14'0 0.1
2017-Nov-15 04:57N 49°18' W 123°14'0 0.0
2017-Nov-15 04:30N 49°18' W 123°14'0 0.0
2017-Nov-15 03:54N 49°18' W 123°14'0 0.1
2017-Nov-15 03:21N 49°18' W 123°14'0 0.0
2017-Nov-15 02:57N 49°18' W 123°14'0 0.1
2017-Nov-15 02:30N 49°18' W 123°14'0 0.0
2017-Nov-15 02:00N 49°18' W 123°14'0 0.1
2017-Nov-15 01:30N 49°18' W 123°14'0 0.1
2017-Nov-15 01:00N 49°18' W 123°14'0 0.1
2017-Nov-15 00:30N 49°18' W 123°14'0 0.1
2017-Nov-15 00:00N 49°18' W 123°14'0 0.0
2017-Nov-14 23:30N 49°18' W 123°14'0 0.1
2017-Nov-14 23:00N 49°18' W 123°14'0 0.1
2017-Nov-14 22:30N 49°18' W 123°14'0 0.0
2017-Nov-14 22:00N 49°18' W 123°14'0 0.1
2017-Nov-14 21:30N 49°18' W 123°14'0 0.1
2017-Nov-14 21:00N 49°18' W 123°14'0 0.0
2017-Nov-14 20:30N 49°18' W 123°14'0 0.1
2017-Nov-14 20:00N 49°18' W 123°14'0 0.0
2017-Nov-14 19:30N 49°18' W 123°14'0 0.1
2017-Nov-14 19:00N 49°18' W 123°14'0 0.0
2017-Nov-14 18:30N 49°18' W 123°14'0 0.0
2017-Nov-14 17:48N 49°18' W 123°14'0 0.1
2017-Nov-14 17:30N 49°18' W 123°14'0 0.1
2017-Nov-14 17:00N 49°18' W 123°14'0 0.0
2017-Nov-14 16:30N 49°18' W 123°14'0 0.1
2017-Nov-14 16:00N 49°18' W 123°14'0 0.1
2017-Nov-14 15:30N 49°18' W 123°14'0 0.0
2017-Nov-14 15:00N 49°18' W 123°14'0 0.0
2017-Nov-14 14:27N 49°18' W 123°14'0 0.0
2017-Nov-14 14:00N 49°18' W 123°14'0 0.0
2017-Nov-14 13:30N 49°18' W 123°14'0 0.0
2017-Nov-14 13:00N 49°18' W 123°14'0 0.0
2017-Nov-14 12:30N 49°18' W 123°14'0 0.1
2017-Nov-14 12:00N 49°18' W 123°14'0 0.2
2017-Nov-14 11:30N 49°18' W 123°14'0 0.2
2017-Nov-14 10:54N 49°18' W 123°13'0 0.1
2017-Nov-14 10:30N 49°18' W 123°13'0 0.1
2017-Nov-14 09:57N 49°18' W 123°13'0 0.0
2017-Nov-14 09:30N 49°18' W 123°13'0 0.0
2017-Nov-14 08:45N 49°18' W 123°13'0 0.0
2017-Nov-14 08:24N 49°18' W 123°13'0 0.0
2017-Nov-14 08:00N 49°18' W 123°13'0 0.0
2017-Nov-14 07:30N 49°18' W 123°13'0 0.0
2017-Nov-14 07:00N 49°18' W 123°13'0 0.0
2017-Nov-14 06:30N 49°18' W 123°13'0 0.0
2017-Nov-14 05:57N 49°18' W 123°13'0 0.0
2017-Nov-14 05:30N 49°18' W 123°13'0 0.1
2017-Nov-14 05:00N 49°18' W 123°13'0 0.2
2017-Nov-14 04:09N 49°18' W 123°14'0 0.3
2017-Nov-14 04:00N 49°18' W 123°14'0 0.1
2017-Nov-14 03:24N 49°18' W 123°14'0 0.0
2017-Nov-14 02:54N 49°18' W 123°14'0 0.0
2017-Nov-14 02:27N 49°18' W 123°14'0 0.1
2017-Nov-14 01:51N 49°18' W 123°14'0 0.0
2017-Nov-14 01:12N 49°18' W 123°14'0 0.1
2017-Nov-14 00:57N 49°18' W 123°14'0 0.1
2017-Nov-14 00:24N 49°18' W 123°14'0 0.0
2017-Nov-14 00:00N 49°18' W 123°14'0 0.1
2017-Nov-13 23:30N 49°18' W 123°14'0 0.1
2017-Nov-13 23:00N 49°18' W 123°14'  

Dump ship's entire track history